Terminal Aerodrome Forecast
Issued by NWS Sioux Falls, SD

Home | Current Version | Previous Version | Text Only | Print | Product List | Glossary Off
Versions: 1 2 3 4 5 6 7 8 9 10 11

371
FTUS43 KFSD 201032 AAC
TAFFSD
TAF AMD
KFSD 201032Z 2011/2106 30008KT P6SM OVC012
      TEMPO 2011/2013 OVC008
     FM201700 32015G23KT P6SM OVC012
     FM202000 32014KT P6SM BKN025
     FM210200 36007KT P6SM FEW150=

USA.gov is the U.S. government's official web portal to all federal, state and local government web resources and services.